Time;durP1;ratioP1;P1;durP2;ratioP2;P2;SDS_P1;SDS_P2;PMS_P1;PMS_P2;Temp;Humidity;BMP_temperature;BMP_pressure;BME280_temperature;BME280_humidity;BME280_pressure;Samples;Min_cycle;Max_cycle;Signal;HPM_P1;HPM_P2
2021/08/27 00:00:36;;;;;;;3.75;0.90;;;13.60;99.90;;;;;;5055385;28;20059;-87
2021/08/27 00:03:01;;;;;;;2.15;0.68;;;13.50;99.90;;;;;;5054221;28;20052;-87
2021/08/27 00:05:27;;;;;;;4.10;0.75;;;13.40;99.90;;;;;;5053781;28;20116;-88
2021/08/27 00:07:53;;;;;;;2.40;0.50;;;13.40;99.90;;;;;;5055049;28;20028;-87
2021/08/27 00:10:19;;;;;;;2.67;0.60;;;13.40;99.90;;;;;;5054786;28;20533;-88
2021/08/27 00:12:45;;;;;;;6.72;0.70;;;13.30;99.90;;;;;;5054226;28;20025;-88
2021/08/27 00:15:11;;;;;;;2.45;0.52;;;13.30;99.90;;;;;;5053466;28;20393;-87
2021/08/27 00:17:38;;;;;;;5.53;0.93;;;13.30;99.90;;;;;;5054086;28;20057;-89
2021/08/27 00:20:06;;;;;;;2.35;0.50;;;13.30;99.90;;;;;;5053743;28;20041;-88
2021/08/27 00:22:32;;;;;;;2.15;0.60;;;13.30;99.90;;;;;;5054609;28;20017;-87
2021/08/27 00:24:58;;;;;;;1.38;0.35;;;13.30;99.90;;;;;;5053646;28;20028;-88
2021/08/27 00:27:24;;;;;;;3.42;0.65;;;13.40;99.90;;;;;;5051912;28;20515;-88
2021/08/27 00:29:50;;;;;;;1.05;0.40;;;13.40;99.90;;;;;;5069461;28;20049;-87
2021/08/27 00:32:17;;;;;;;1.20;0.45;;;13.40;99.90;;;;;;5034494;28;20026;-87
2021/08/27 00:34:43;;;;;;;1.40;0.60;;;13.30;99.90;;;;;;5032977;28;20013;-88
2021/08/27 00:37:09;;;;;;;3.90;0.80;;;13.30;99.90;;;;;;5033161;28;20026;-88
2021/08/27 00:39:35;;;;;;;3.17;0.50;;;13.30;99.90;;;;;;5034874;28;20195;-89
2021/08/27 00:42:01;;;;;;;2.47;0.50;;;13.30;99.90;;;;;;5034155;28;20025;-87
2021/08/27 00:44:28;;;;;;;2.05;0.50;;;13.30;99.90;;;;;;5033090;28;20037;-88
2021/08/27 00:46:54;;;;;;;2.42;0.60;;;13.20;99.90;;;;;;5033072;28;20014;-89
2021/08/27 00:49:20;;;;;;;3.53;0.60;;;13.20;99.90;;;;;;5033474;28;20121;-89
2021/08/27 00:51:46;;;;;;;0.65;0.40;;;13.20;99.90;;;;;;5034006;28;20048;-89
2021/08/27 00:54:12;;;;;;;1.95;0.65;;;13.10;99.90;;;;;;5034891;28;20395;-88
2021/08/27 00:56:39;;;;;;;1.75;0.40;;;13.10;99.90;;;;;;5033686;28;20053;-85
2021/08/27 00:59:06;;;;;;;1.35;0.50;;;13.00;99.90;;;;;;5033090;28;20363;-88
2021/08/27 01:01:31;;;;;;;1.85;0.60;;;13.00;99.90;;;;;;5033696;28;20022;-88
2021/08/27 01:03:59;;;;;;;4.38;0.57;;;12.90;99.90;;;;;;5034423;28;20033;-88
2021/08/27 01:06:36;;;;;;;3.40;0.40;;;12.90;99.90;;;;;;5032650;28;20523;-89
2021/08/27 01:09:14;;;;;;;1.85;0.52;;;12.90;99.90;;;;;;5033200;28;20040;-86
2021/08/27 01:12:03;;;;;;;1.67;0.65;;;12.80;99.90;;;;;;5034910;28;20482;-89
2021/08/27 01:14:40;;;;;;;2.55;0.52;;;12.80;99.90;;;;;;5033703;28;20057;-88
2021/08/27 01:17:19;;;;;;;2.45;0.60;;;12.80;99.90;;;;;;5033459;28;20116;-88
2021/08/27 01:19:47;;;;;;;2.40;0.60;;;12.70;99.90;;;;;;5033849;28;20037;-88
2021/08/27 01:22:38;;;;;;;2.47;0.65;;;12.70;99.90;;;;;;5033676;28;20022;-88
2021/08/27 01:25:05;;;;;;;3.58;0.95;;;12.70;99.90;;;;;;5033758;28;20087;-87
2021/08/27 01:27:34;;;;;;;3.20;0.90;;;12.60;99.90;;;;;;5033485;28;20033;-87
2021/08/27 01:30:20;;;;;;;1.83;0.47;;;12.60;99.90;;;;;;5068489;28;20384;-88
2021/08/27 01:33:04;;;;;;;2.22;0.60;;;12.60;99.90;;;;;;5056933;28;20051;-87
2021/08/27 01:35:31;;;;;;;1.75;0.60;;;12.60;99.90;;;;;;5074661;28;20021;-87
2021/08/27 01:38:02;;;;;;;3.50;0.73;;;12.50;99.90;;;;;;5089887;28;20558;-87
2021/08/27 01:40:29;;;;;;;1.92;0.55;;;12.60;99.90;;;;;;5074154;28;20487;-87
2021/08/27 01:42:56;;;;;;;1.15;0.32;;;12.60;99.90;;;;;;5074577;28;20051;-88
2021/08/27 01:45:24;;;;;;;2.25;0.47;;;12.60;99.90;;;;;;5073363;28;20028;-87
2021/08/27 01:47:51;;;;;;;1.77;0.40;;;12.50;99.90;;;;;;5073857;28;20016;-87
2021/08/27 01:50:20;;;;;;;1.77;0.85;;;12.50;99.90;;;;;;5056418;28;20385;-88
2021/08/27 01:52:47;;;;;;;1.77;0.40;;;12.50;99.90;;;;;;5055999;28;20091;-87
2021/08/27 01:55:13;;;;;;;2.08;0.47;;;12.50;99.90;;;;;;5074200;28;20067;-87
2021/08/27 01:57:42;;;;;;;4.50;0.90;;;12.50;99.90;;;;;;5056114;28;20170;-86
2021/08/27 02:00:09;;;;;;;2.67;0.60;;;12.50;99.90;;;;;;5056307;28;20055;-86
2021/08/27 02:02:37;;;;;;;2.60;0.68;;;12.50;99.90;;;;;;5056196;28;20047;-87
2021/08/27 02:05:06;;;;;;;3.88;0.50;;;12.50;99.90;;;;;;5056137;28;20055;-87
2021/08/27 02:07:32;;;;;;;1.60;0.50;;;12.50;99.90;;;;;;5055691;28;20150;-88
2021/08/27 02:10:00;;;;;;;2.95;0.50;;;12.50;99.90;;;;;;5055945;28;20440;-87
2021/08/27 02:12:26;;;;;;;1.98;0.60;;;12.50;99.90;;;;;;5055957;28;20028;-88
2021/08/27 02:14:55;;;;;;;2.90;0.50;;;12.50;99.90;;;;;;5073790;28;20095;-87
2021/08/27 02:17:23;;;;;;;2.83;0.70;;;12.50;99.90;;;;;;5089184;28;20111;-87
2021/08/27 02:19:49;;;;;;;3.72;0.50;;;12.50;99.90;;;;;;5073539;28;20472;-87
2021/08/27 02:22:17;;;;;;;2.95;0.65;;;12.50;99.90;;;;;;5089344;28;20017;-87
2021/08/27 02:25:03;;;;;;;1.33;0.50;;;12.60;99.90;;;;;;5073650;28;20039;-88
2021/08/27 02:27:30;;;;;;;2.35;0.63;;;12.60;99.90;;;;;;5055897;28;20460;-87
2021/08/27 02:29:59;;;;;;;3.78;0.77;;;12.60;99.90;;;;;;5055629;28;20056;-88
2021/08/27 02:32:26;;;;;;;4.05;0.77;;;12.60;99.90;;;;;;5055681;28;20103;-87
2021/08/27 02:34:58;;;;;;;2.10;0.70;;;12.60;99.90;;;;;;5055393;28;20157;-87
2021/08/27 02:37:25;;;;;;;1.73;0.50;;;12.70;99.90;;;;;;5055427;28;20035;-88
2021/08/27 02:39:50;;;;;;;2.60;0.90;;;12.70;99.90;;;;;;5073157;28;20029;-87
2021/08/27 02:42:17;;;;;;;1.98;0.65;;;12.80;99.90;;;;;;5088850;28;20024;-87
2021/08/27 02:44:43;;;;;;;2.20;0.60;;;12.80;99.90;;;;;;5055790;28;20437;-86
2021/08/27 02:47:09;;;;;;;2.28;0.60;;;12.90;99.90;;;;;;5073135;28;20032;-88
2021/08/27 02:49:36;;;;;;;2.00;0.85;;;12.90;99.90;;;;;;5089089;28;20491;-88
2021/08/27 02:52:26;;;;;;;2.30;0.70;;;13.00;99.90;;;;;;5073493;28;20028;-87
2021/08/27 02:55:22;;;;;;;1.80;0.90;;;12.90;99.90;;;;;;5055491;28;20028;-86
2021/08/27 02:58:07;;;;;;;2.15;0.50;;;12.90;99.90;;;;;;5088635;28;20424;-87
2021/08/27 03:00:51;;;;;;;2.45;0.70;;;12.90;99.90;;;;;;5059520;28;20024;-87
2021/08/27 03:03:21;;;;;;;3.38;0.70;;;12.80;99.90;;;;;;5059581;28;20456;-87
2021/08/27 03:05:49;;;;;;;2.38;0.63;;;12.80;99.90;;;;;;5077031;28;20645;-88
2021/08/27 03:08:20;;;;;;;4.75;0.85;;;12.80;99.90;;;;;;5059477;28;20032;-86
2021/08/27 03:10:57;;;;;;;2.95;0.70;;;12.80;99.90;;;;;;5077326;28;20028;-87
2021/08/27 03:13:39;;;;;;;3.30;0.75;;;12.90;99.90;;;;;;5059312;28;20038;-88
2021/08/27 03:16:09;;;;;;;4.75;0.88;;;13.00;99.90;;;;;;5059154;28;20045;-87
2021/08/27 03:18:46;;;;;;;3.13;0.68;;;13.00;99.90;;;;;;5059213;28;20081;-87
2021/08/27 03:21:36;;;;;;;3.78;0.82;;;13.10;99.90;;;;;;5077208;28;20024;-87
2021/08/27 03:24:28;;;;;;;5.07;1.00;;;13.10;99.90;;;;;;5091772;28;20420;-87
2021/08/27 03:26:59;;;;;;;1.98;0.60;;;13.20;99.90;;;;;;5059389;28;20028;-87
2021/08/27 03:29:29;;;;;;;2.63;0.75;;;13.30;99.90;;;;;;5076785;28;20056;-88
2021/08/27 03:31:56;;;;;;;5.03;0.60;;;13.30;99.90;;;;;;5058877;28;20069;-88
2021/08/27 03:34:22;;;;;;;1.92;0.60;;;13.30;99.90;;;;;;5076980;28;20029;-88
2021/08/27 03:36:49;;;;;;;2.72;0.63;;;13.40;99.90;;;;;;5058937;28;20012;-87
2021/08/27 03:39:15;;;;;;;3.25;0.60;;;13.40;99.90;;;;;;5092554;28;20039;-89
2021/08/27 03:41:42;;;;;;;2.13;0.73;;;13.40;99.90;;;;;;5092415;28;20028;-87
2021/08/27 03:44:09;;;;;;;3.70;0.70;;;13.50;99.90;;;;;;5058783;28;20021;-88
2021/08/27 03:46:37;;;;;;;4.45;0.80;;;13.60;99.90;;;;;;5092085;28;20047;-88
2021/08/27 03:49:04;;;;;;;2.42;0.77;;;13.60;99.90;;;;;;5076907;28;20102;-88
2021/08/27 03:51:30;;;;;;;2.47;0.95;;;13.70;99.90;;;;;;5058742;28;20025;-88
2021/08/27 03:53:57;;;;;;;3.45;0.98;;;13.60;99.90;;;;;;5092460;28;20020;-88
2021/08/27 03:56:27;;;;;;;2.38;0.60;;;13.70;99.90;;;;;;5058524;28;20093;-88
2021/08/27 03:58:55;;;;;;;5.18;0.70;;;13.70;99.90;;;;;;5092003;28;20020;-88
2021/08/27 04:01:22;;;;;;;1.65;0.50;;;13.70;99.90;;;;;;5058471;28;20052;-89
2021/08/27 04:03:48;;;;;;;1.58;0.45;;;13.70;99.90;;;;;;5076335;28;20064;-88
2021/08/27 04:06:14;;;;;;;2.22;0.85;;;13.70;99.90;;;;;;5076230;28;20039;-88
2021/08/27 04:08:42;;;;;;;3.30;0.70;;;13.70;99.90;;;;;;5090945;28;20024;-89
2021/08/27 04:11:13;;;;;;;2.00;0.50;;;13.70;99.90;;;;;;5076007;28;20468;-88
2021/08/27 04:13:39;;;;;;;4.40;0.85;;;13.80;99.90;;;;;;5092075;28;20174;-89
2021/08/27 04:16:06;;;;;;;4.13;0.95;;;13.70;99.90;;;;;;5075575;28;20594;-88
2021/08/27 04:18:32;;;;;;;4.15;0.90;;;13.60;99.90;;;;;;5058112;28;20078;-88
2021/08/27 04:21:00;;;;;;;1.77;0.80;;;13.60;99.90;;;;;;5091996;28;20025;-88
2021/08/27 04:23:26;;;;;;;3.25;0.68;;;13.50;99.90;;;;;;5058265;28;20031;-88
2021/08/27 04:25:52;;;;;;;4.35;0.77;;;13.40;99.90;;;;;;5091800;28;20380;-89
2021/08/27 04:28:18;;;;;;;4.65;0.75;;;13.40;99.90;;;;;;5091265;28;20053;-88
2021/08/27 04:30:44;;;;;;;2.70;0.80;;;13.30;99.90;;;;;;5057871;28;20024;-88
2021/08/27 04:33:10;;;;;;;4.70;0.88;;;13.30;99.90;;;;;;5058087;28;20048;-88
2021/08/27 04:35:36;;;;;;;2.85;1.02;;;13.30;99.90;;;;;;5057910;28;20108;-87
2021/08/27 04:38:02;;;;;;;3.63;0.90;;;13.30;99.90;;;;;;5058075;28;20051;-90
2021/08/27 04:40:29;;;;;;;3.50;0.80;;;13.30;99.90;;;;;;5075409;28;20025;-87
2021/08/27 04:42:54;;;;;;;3.63;0.70;;;13.20;99.90;;;;;;5076148;28;20018;-88
2021/08/27 04:45:20;;;;;;;2.35;0.85;;;13.20;99.90;;;;;;5075799;28;20419;-88
2021/08/27 04:47:46;;;;;;;2.80;0.70;;;13.20;99.90;;;;;;5091527;28;20024;-88
2021/08/27 04:50:13;;;;;;;3.50;1.02;;;13.10;99.90;;;;;;5057104;28;20035;-88
2021/08/27 04:52:39;;;;;;;3.60;0.80;;;13.20;99.90;;;;;;5091516;28;20184;-88
2021/08/27 04:55:06;;;;;;;4.38;0.90;;;13.20;99.90;;;;;;5076080;28;20097;-87
2021/08/27 04:57:32;;;;;;;2.97;1.00;;;13.30;99.90;;;;;;5075999;28;20020;-87
2021/08/27 04:59:58;;;;;;;3.67;0.80;;;13.30;99.90;;;;;;5091158;28;20491;-87
2021/08/27 05:02:24;;;;;;;4.03;1.10;;;13.40;99.90;;;;;;5075326;28;20499;-88
2021/08/27 05:04:50;;;;;;;1.83;0.60;;;13.50;99.90;;;;;;5057712;28;20476;-88
2021/08/27 05:07:16;;;;;;;3.72;0.90;;;13.50;99.90;;;;;;5057566;28;20173;-87
2021/08/27 05:09:43;;;;;;;2.28;0.63;;;13.60;99.90;;;;;;5075088;28;20031;-87
2021/08/27 05:12:09;;;;;;;3.42;0.88;;;13.60;99.90;;;;;;5090694;28;20084;-88
2021/08/27 05:14:35;;;;;;;2.22;0.60;;;13.70;99.90;;;;;;5056858;28;20109;-88
2021/08/27 05:17:01;;;;;;;1.98;0.68;;;13.70;99.90;;;;;;5056287;28;20028;-88
2021/08/27 05:19:27;;;;;;;2.97;0.55;;;13.80;99.90;;;;;;5073958;28;20037;-89
2021/08/27 05:21:54;;;;;;;2.85;0.82;;;13.80;99.90;;;;;;5057520;28;20502;-88
2021/08/27 05:24:19;;;;;;;3.08;0.60;;;13.80;99.90;;;;;;5057287;28;20028;-88
2021/08/27 05:26:46;;;;;;;3.88;0.80;;;13.80;99.90;;;;;;5075064;28;20070;-89
2021/08/27 05:29:12;;;;;;;3.80;0.70;;;13.80;99.90;;;;;;5056744;28;20497;-90
2021/08/27 05:31:37;;;;;;;1.60;0.70;;;13.90;99.90;;;;;;5075133;28;20098;-89
2021/08/27 05:34:06;;;;;;;3.67;0.88;;;13.90;99.90;;;;;;5056921;28;20020;-89
2021/08/27 05:36:33;;;;;;;1.70;0.70;;;14.00;99.90;;;;;;5057021;28;20017;-89
2021/08/27 05:38:59;;;;;;;2.65;0.70;;;14.00;99.90;;;;;;5075143;28;20032;-89
2021/08/27 05:41:25;;;;;;;2.08;0.60;;;14.00;99.90;;;;;;5057067;28;20027;-89
2021/08/27 05:43:51;;;;;;;3.85;0.80;;;14.00;99.90;;;;;;5056975;28;20020;-89
2021/08/27 05:46:17;;;;;;;3.00;0.77;;;14.10;99.90;;;;;;5074730;28;20039;-89
2021/08/27 05:48:46;;;;;;;2.25;0.60;;;14.10;99.90;;;;;;5074180;28;20032;-89
2021/08/27 05:51:12;;;;;;;1.85;0.60;;;14.10;99.90;;;;;;5056346;28;20033;-89
2021/08/27 05:53:38;;;;;;;2.38;0.70;;;14.10;99.90;;;;;;5056231;28;20073;-88
2021/08/27 05:56:04;;;;;;;1.85;0.50;;;14.10;99.90;;;;;;5056352;28;20052;-90
2021/08/27 05:58:30;;;;;;;3.40;0.73;;;14.20;99.90;;;;;;5056284;28;20529;-88
2021/08/27 06:00:56;;;;;;;2.08;0.70;;;14.30;99.90;;;;;;5056164;28;20153;-88
2021/08/27 06:03:23;;;;;;;3.88;0.80;;;14.30;99.90;;;;;;5055949;28;20020;-88
2021/08/27 06:05:49;;;;;;;3.88;0.80;;;14.40;99.90;;;;;;5056171;28;20028;-88
2021/08/27 06:08:24;;;;;;;3.05;0.90;;;14.50;99.90;;;;;;5055334;28;20119;-88
2021/08/27 06:10:53;;;;;;;3.15;0.80;;;14.60;99.90;;;;;;5052556;28;20090;-87
2021/08/27 06:13:22;;;;;;;2.08;0.80;;;14.60;99.90;;;;;;5034398;28;20021;-88
2021/08/27 06:15:48;;;;;;;2.60;0.80;;;14.70;99.90;;;;;;5051794;28;20036;-89
2021/08/27 06:18:18;;;;;;;3.33;1.00;;;14.70;99.90;;;;;;5051509;28;20037;-88
2021/08/27 06:20:48;;;;;;;2.17;0.88;;;14.90;99.90;;;;;;5051856;28;20376;-89
2021/08/27 06:23:20;;;;;;;5.30;1.10;;;14.90;99.90;;;;;;5053056;28;20024;-88
2021/08/27 06:25:49;;;;;;;6.90;1.50;;;15.00;99.90;;;;;;5053321;28;20047;-88
2021/08/27 06:28:18;;;;;;;4.82;1.10;;;15.00;99.90;;;;;;5053472;28;20431;-89
2021/08/27 06:30:53;;;;;;;5.50;1.40;;;15.10;99.90;;;;;;5071311;28;20041;-87
2021/08/27 06:33:25;;;;;;;3.13;0.98;;;15.10;99.90;;;;;;5071325;28;20025;-88
2021/08/27 06:35:56;;;;;;;3.03;1.10;;;15.10;99.90;;;;;;5053921;28;20094;-90
2021/08/27 06:38:29;;;;;;;5.45;1.00;;;15.20;99.90;;;;;;5052136;28;20036;-88
2021/08/27 06:41:06;;;;;;;2.78;1.00;;;15.20;99.90;;;;;;5044612;28;20037;-87
2021/08/27 06:43:35;;;;;;;4.43;1.08;;;15.30;99.90;;;;;;5038992;28;20017;-88
2021/08/27 06:46:05;;;;;;;5.38;0.98;;;15.30;99.90;;;;;;5053514;28;20017;-87
2021/08/27 06:48:31;;;;;;;2.33;0.90;;;15.30;99.90;;;;;;5053313;28;20427;-89
2021/08/27 06:51:03;;;;;;;3.22;0.73;;;15.30;99.90;;;;;;5053358;28;20407;-88
2021/08/27 06:53:29;;;;;;;4.63;1.13;;;15.40;99.90;;;;;;5038390;28;20093;-87
2021/08/27 06:55:55;;;;;;;2.97;1.08;;;15.50;99.90;;;;;;5053706;28;20024;-88
2021/08/27 06:58:27;;;;;;;3.20;0.85;;;15.60;99.90;;;;;;5067494;28;20568;-89
2021/08/27 07:00:53;;;;;;;4.28;1.05;;;15.70;99.90;;;;;;5037372;28;20029;-88
2021/08/27 07:03:23;;;;;;;3.15;0.98;;;15.80;99.90;;;;;;5052874;28;20029;-87
2021/08/27 07:05:51;;;;;;;4.10;0.95;;;15.90;99.90;;;;;;5053402;28;20020;-88
2021/08/27 07:08:20;;;;;;;2.45;0.75;;;16.00;99.90;;;;;;5044797;28;20029;-87
2021/08/27 07:10:46;;;;;;;2.78;0.80;;;16.10;99.90;;;;;;5053025;28;20016;-87
2021/08/27 07:13:25;;;;;;;2.83;0.90;;;16.20;99.90;;;;;;5052649;28;20047;-87
2021/08/27 07:15:51;;;;;;;2.38;1.05;;;16.30;99.90;;;;;;5053304;28;20017;-88
2021/08/27 07:18:27;;;;;;;3.60;0.88;;;16.40;99.90;;;;;;5045295;28;20028;-87
2021/08/27 07:20:57;;;;;;;2.22;0.82;;;16.40;99.90;;;;;;5049142;28;20055;-88
2021/08/27 07:23:24;;;;;;;3.42;0.95;;;16.40;99.90;;;;;;5055693;28;20143;-87
2021/08/27 07:25:51;;;;;;;5.03;1.20;;;16.50;99.90;;;;;;5052638;28;20025;-87
2021/08/27 07:28:20;;;;;;;5.20;1.10;;;16.40;99.90;;;;;;5052666;28;20027;-87
2021/08/27 07:30:46;;;;;;;4.88;1.20;;;16.40;99.90;;;;;;5055311;28;20057;-89
2021/08/27 07:33:12;;;;;;;3.00;1.05;;;16.40;99.90;;;;;;5084987;28;20371;-87
2021/08/27 07:35:38;;;;;;;3.75;0.88;;;16.50;99.90;;;;;;5070931;28;20044;-89
2021/08/27 07:38:04;;;;;;;4.60;1.05;;;16.60;99.90;;;;;;5052162;28;20017;-88
2021/08/27 07:40:30;;;;;;;5.40;1.20;;;16.70;99.90;;;;;;5070281;28;20021;-89
2021/08/27 07:42:56;;;;;;;3.08;0.88;;;16.80;99.90;;;;;;5071473;28;20031;-89
2021/08/27 07:45:24;;;;;;;4.70;0.95;;;16.90;99.90;;;;;;5056461;28;20024;-88
2021/08/27 07:47:50;;;;;;;3.15;1.10;;;17.00;99.90;;;;;;5053535;28;20037;-89
2021/08/27 07:50:16;;;;;;;4.80;0.98;;;17.00;99.90;;;;;;5047210;28;20043;-89
2021/08/27 07:52:43;;;;;;;2.53;0.80;;;17.10;99.90;;;;;;5073261;28;20471;-89
2021/08/27 07:55:09;;;;;;;3.58;0.90;;;17.20;99.90;;;;;;5073274;28;20040;-88
2021/08/27 07:57:44;;;;;;;2.38;0.77;;;17.30;99.90;;;;;;5073882;28;20488;-89
2021/08/27 08:00:16;;;;;;;4.30;1.10;;;17.40;99.90;;;;;;5046187;28;20029;-87
2021/08/27 08:02:42;;;;;;;3.60;1.53;;;17.40;99.90;;;;;;5050776;28;20082;-89
2021/08/27 08:05:09;;;;;;;3.30;1.33;;;17.30;99.90;;;;;;5072770;28;20033;-89
2021/08/27 08:07:35;;;;;;;3.45;1.10;;;17.30;99.90;;;;;;5054624;28;20029;-89
2021/08/27 08:10:01;;;;;;;4.13;1.30;;;17.30;99.90;;;;;;5071304;28;20140;-89
2021/08/27 08:12:27;;;;;;;3.03;0.90;;;17.40;99.90;;;;;;5055541;28;20027;-88
2021/08/27 08:14:53;;;;;;;3.58;1.15;;;17.40;99.90;;;;;;5089108;28;20685;-88
2021/08/27 08:17:19;;;;;;;3.80;0.95;;;17.40;99.90;;;;;;5055618;28;20028;-88
2021/08/27 08:19:45;;;;;;;3.83;1.00;;;17.50;99.90;;;;;;5064819;28;20041;-89
2021/08/27 08:22:11;;;;;;;5.20;1.15;;;17.60;99.90;;;;;;5074499;28;20024;-89
2021/08/27 08:24:37;;;;;;;5.03;1.02;;;17.70;99.90;;;;;;5068316;28;20029;-89
2021/08/27 08:27:03;;;;;;;4.63;1.02;;;17.70;99.90;;;;;;5040076;28;20119;-87
2021/08/27 08:29:29;;;;;;;3.47;0.95;;;17.60;99.90;;;;;;5039916;28;20136;-88
2021/08/27 08:31:55;;;;;;;4.15;1.08;;;17.60;99.90;;;;;;5073531;28;20055;-88
2021/08/27 08:34:22;;;;;;;5.25;1.30;;;17.60;99.90;;;;;;5055577;28;20067;-88
2021/08/27 08:36:48;;;;;;;4.68;1.30;;;17.70;99.90;;;;;;5055178;28;20376;-87
2021/08/27 08:39:14;;;;;;;4.60;1.08;;;17.70;99.90;;;;;;5055122;28;20047;-89
2021/08/27 08:41:41;;;;;;;5.53;1.33;;;17.80;99.90;;;;;;5055347;28;20430;-88
2021/08/27 08:44:08;;;;;;;3.47;1.05;;;17.90;99.90;;;;;;5072754;28;20025;-88
2021/08/27 08:46:34;;;;;;;4.65;1.40;;;17.90;99.90;;;;;;5066389;28;20060;-88
2021/08/27 08:49:03;;;;;;;6.00;1.45;;;18.00;99.90;;;;;;5054128;28;20059;-87
2021/08/27 08:51:30;;;;;;;4.03;1.67;;;18.10;99.90;;;;;;5054504;28;20036;-88
2021/08/27 08:53:57;;;;;;;4.95;1.60;;;18.30;99.90;;;;;;5053281;28;20081;-88
2021/08/27 08:56:25;;;;;;;3.17;1.05;;;18.60;99.90;;;;;;5071900;28;20055;-88
2021/08/27 08:58:51;;;;;;;7.03;1.40;;;19.00;99.90;;;;;;5037719;28;20033;-89
2021/08/27 09:01:20;;;;;;;4.10;1.10;;;19.10;99.90;;;;;;5071721;28;20025;-89
2021/08/27 09:03:47;;;;;;;6.53;1.50;;;19.00;99.90;;;;;;5054833;28;20017;-88
2021/08/27 09:06:13;;;;;;;3.70;1.35;;;19.10;99.90;;;;;;5054691;28;20166;-88
2021/08/27 09:08:45;;;;;;;5.28;1.30;;;19.10;99.90;;;;;;5042099;28;20036;-86
2021/08/27 09:11:21;;;;;;;5.18;1.20;;;19.10;99.90;;;;;;5072629;28;20024;-88
2021/08/27 09:13:55;;;;;;;5.05;1.45;;;19.10;99.90;;;;;;5053056;28;20092;-88
2021/08/27 09:16:26;;;;;;;5.65;1.75;;;19.10;99.90;;;;;;5033512;28;20508;-89
2021/08/27 09:18:53;;;;;;;4.80;1.25;;;19.00;99.90;;;;;;5047810;28;20028;-88
2021/08/27 09:21:38;;;;;;;5.78;1.55;;;18.80;99.90;;;;;;5070408;28;20457;-88
2021/08/27 09:24:18;;;;;;;5.68;1.30;;;18.70;99.90;;;;;;5053498;28;20044;-89
2021/08/27 09:27:01;;;;;;;4.80;1.27;;;18.70;99.90;;;;;;5036605;28;20681;-89
2021/08/27 09:29:45;;;;;;;3.85;1.17;;;18.80;99.90;;;;;;5069673;28;20098;-88
2021/08/27 09:32:31;;;;;;;6.60;1.25;;;18.90;99.90;;;;;;5070963;28;20033;-88
2021/08/27 09:35:20;;;;;;;4.95;1.63;;;19.20;99.90;;;;;;5043842;28;20043;-89
2021/08/27 09:37:54;;;;;;;5.20;1.52;;;19.60;99.90;;;;;;5076855;28;20105;-87
2021/08/27 09:40:26;;;;;;;4.40;1.08;;;19.80;99.90;;;;;;5046847;28;20679;-89
2021/08/27 09:42:53;;;;;;;3.40;1.05;;;19.80;99.90;;;;;;5049595;28;20518;-88
2021/08/27 09:45:34;;;;;;;4.97;1.30;;;20.00;99.90;;;;;;5053945;28;20065;-89
2021/08/27 09:48:02;;;;;;;4.18;1.20;;;20.10;99.90;;;;;;5053798;28;20020;-90
2021/08/27 09:50:34;;;;;;;4.05;1.35;;;20.50;99.90;;;;;;5075753;28;20036;-89
2021/08/27 09:53:03;;;;;;;3.47;1.48;;;21.10;99.90;;;;;;5065933;28;20086;-89
2021/08/27 09:55:33;;;;;;;5.43;1.20;;;21.20;99.90;;;;;;5071376;28;20020;-88
2021/08/27 09:58:02;;;;;;;4.32;1.10;;;21.90;99.90;;;;;;5053341;28;20028;-89
2021/08/27 10:00:28;;;;;;;4.13;0.98;;;23.30;99.90;;;;;;5062832;28;20064;-89
2021/08/27 10:02:56;;;;;;;6.03;1.45;;;23.60;99.90;;;;;;5052829;28;20016;-88
2021/08/27 10:05:37;;;;;;;5.85;1.38;;;23.00;99.90;;;;;;5055226;28;20021;-89
2021/08/27 10:08:32;;;;;;;4.55;1.20;;;22.20;99.90;;;;;;5052706;28;20037;-88
2021/08/27 10:11:17;;;;;;;3.75;1.00;;;21.40;99.90;;;;;;5049187;28;20499;-89
2021/08/27 10:13:46;;;;;;;3.95;0.98;;;20.90;99.90;;;;;;5047008;28;20020;-89
2021/08/27 10:16:16;;;;;;;3.58;1.02;;;20.80;99.90;;;;;;5069769;28;20025;-88
2021/08/27 10:18:46;;;;;;;3.58;1.10;;;21.00;99.90;;;;;;5051193;28;20395;-89
2021/08/27 10:21:17;;;;;;;5.63;1.60;;;21.20;99.90;;;;;;5082287;28;20117;-90
2021/08/27 10:23:50;;;;;;;5.70;1.40;;;21.00;99.90;;;;;;5063737;28;20020;-92
2021/08/27 10:26:24;;;;;;;4.70;1.30;;;20.30;99.90;;;;;;5050238;28;20017;-88
2021/08/27 10:28:51;;;;;;;3.20;1.00;;;19.10;99.90;;;;;;5049730;28;20107;-86
2021/08/27 10:31:18;;;;;;;4.30;1.05;;;18.30;99.90;;;;;;5046531;28;20025;-88
2021/08/27 10:33:49;;;;;;;3.78;1.17;;;17.90;99.90;;;;;;5067158;28;20029;-88
2021/08/27 10:36:27;;;;;;;3.97;1.02;;;17.70;99.90;;;;;;5051903;28;20032;-87
2021/08/27 10:38:59;;;;;;;3.72;1.00;;;17.60;99.90;;;;;;5048734;28;20051;-85
2021/08/27 10:41:37;;;;;;;4.07;1.83;;;18.00;99.90;;;;;;5052174;28;20132;-87
2021/08/27 10:44:11;;;;;;;4.05;1.10;;;18.20;99.90;;;;;;5069903;28;20009;-86
2021/08/27 10:46:47;;;;;;;5.18;1.00;;;18.60;99.90;;;;;;5070626;28;20218;-86
2021/08/27 10:49:40;;;;;;;4.97;0.98;;;18.90;99.90;;;;;;5084574;28;20074;-87
2021/08/27 10:52:36;;;;;;;2.97;0.85;;;19.30;99.90;;;;;;5067060;28;20037;-87
2021/08/27 10:55:12;;;;;;;3.03;1.10;;;19.50;99.90;;;;;;5068625;28;20039;-87
2021/08/27 10:58:00;;;;;;;3.30;0.90;;;19.70;99.90;;;;;;5068837;28;20105;-88
2021/08/27 11:00:32;;;;;;;1.65;0.63;;;19.90;99.90;;;;;;5051771;28;20380;-87
2021/08/27 11:03:02;;;;;;;2.40;0.90;;;20.10;99.90;;;;;;5069493;28;20047;-88
2021/08/27 11:05:33;;;;;;;4.53;1.02;;;20.40;99.90;;;;;;5051572;28;20468;-90
2021/08/27 11:08:27;;;;;;;2.70;0.90;;;20.70;99.90;;;;;;5051694;28;20098;-89
2021/08/27 11:11:08;;;;;;;3.22;0.70;;;21.00;99.90;;;;;;5047738;28;20036;-89
2021/08/27 11:13:36;;;;;;;3.00;0.85;;;22.20;99.90;;;;;;5049301;28;20031;-88
2021/08/27 11:16:21;;;;;;;3.97;0.93;;;23.00;99.90;;;;;;5069621;28;20036;-87
2021/08/27 11:18:55;;;;;;;2.95;0.80;;;23.60;99.90;;;;;;5056726;28;20036;-88
2021/08/27 11:21:39;;;;;;;2.95;0.77;;;23.60;99.90;;;;;;5057194;28;20055;-86
2021/08/27 11:24:20;;;;;;;2.75;0.85;;;22.70;99.90;;;;;;5074845;28;20059;-87
2021/08/27 11:26:58;;;;;;;3.67;0.82;;;21.90;99.90;;;;;;5056310;28;20031;-86
2021/08/27 11:29:40;;;;;;;2.92;0.75;;;21.30;99.90;;;;;;5053263;28;20531;-88
2021/08/27 11:32:31;;;;;;;4.55;0.90;;;20.90;99.90;;;;;;5053496;28;20071;-88
2021/08/27 11:35:09;;;;;;;2.88;1.08;;;20.50;99.90;;;;;;5054991;28;20048;-87
2021/08/27 11:37:44;;;;;;;3.63;1.10;;;21.30;99.90;;;;;;5052748;28;20051;-87
2021/08/27 11:40:14;;;;;;;4.82;1.30;;;22.70;99.90;;;;;;5054360;28;20481;-89
2021/08/27 11:42:55;;;;;;;4.63;1.33;;;23.70;99.90;;;;;;5036484;28;20029;-88
2021/08/27 11:45:25;;;;;;;5.82;1.15;;;24.00;99.90;;;;;;5053367;28;20025;-89
2021/08/27 11:47:58;;;;;;;3.90;1.00;;;24.20;99.90;;;;;;5053244;28;20036;-88
2021/08/27 11:50:28;;;;;;;4.97;1.10;;;24.80;99.90;;;;;;5052023;28;20059;-88
2021/08/27 11:53:01;;;;;;;5.55;1.35;;;25.40;99.90;;;;;;5048921;28;20098;-86
2021/08/27 11:55:29;;;;;;;3.47;0.95;;;25.80;99.90;;;;;;5049502;28;20017;-88
2021/08/27 11:58:00;;;;;;;6.32;1.42;;;25.20;99.90;;;;;;5051813;28;20035;-88
2021/08/27 12:00:39;;;;;;;5.30;1.73;;;24.30;99.90;;;;;;5051182;28;20025;-88
2021/08/27 12:03:05;;;;;;;3.63;1.08;;;23.60;99.90;;;;;;5050871;28;20021;-89
2021/08/27 12:05:33;;;;;;;6.28;1.60;;;23.00;99.90;;;;;;5053575;28;20024;-88
2021/08/27 12:08:07;;;;;;;5.15;1.23;;;22.50;99.90;;;;;;5053089;28;20039;-89
2021/08/27 12:10:34;;;;;;;5.35;1.50;;;22.30;99.90;;;;;;5051587;28;20057;-90
2021/08/27 12:13:02;;;;;;;5.45;1.20;;;23.20;99.90;;;;;;5051567;28;20667;-87
2021/08/27 12:15:34;;;;;;;6.13;1.88;;;23.90;99.90;;;;;;5049916;28;20083;-86
2021/08/27 12:18:07;;;;;;;3.47;1.27;;;24.00;99.90;;;;;;5052108;28;20431;-86
2021/08/27 12:20:39;;;;;;;4.97;1.65;;;23.70;99.90;;;;;;5051072;28;20040;-86
2021/08/27 12:23:13;;;;;;;6.40;1.50;;;24.40;99.90;;;;;;5052480;28;20086;-86
2021/08/27 12:25:42;;;;;;;2.97;1.08;;;25.10;99.90;;;;;;5052046;28;20017;-87
2021/08/27 12:28:10;;;;;;;4.03;1.13;;;25.50;99.90;;;;;;5052083;28;20064;-86
2021/08/27 12:30:47;;;;;;;5.45;1.20;;;26.00;99.90;;;;;;5050508;28;20052;-86
2021/08/27 12:33:14;;;;;;;3.95;1.08;;;26.70;99.90;;;;;;5051991;28;20029;-88
2021/08/27 12:35:40;;;;;;;5.75;1.38;;;27.10;99.10;;;;;;5053972;28;20060;-87
2021/08/27 12:38:07;;;;;;;6.70;1.85;;;26.70;98.40;;;;;;5052135;28;20080;-85
2021/08/27 12:40:34;;;;;;;6.63;1.83;;;25.70;98.80;;;;;;5051130;28;20131;-86
2021/08/27 12:43:09;;;;;;;3.97;1.42;;;24.80;99.10;;;;;;5052083;28;20472;-87
2021/08/27 12:45:43;;;;;;;4.30;1.30;;;24.60;99.90;;;;;;5052249;28;20032;-88
2021/08/27 12:48:10;;;;;;;6.53;1.83;;;25.10;99.60;;;;;;5052438;28;20032;-86
2021/08/27 12:50:49;;;;;;;4.07;1.30;;;25.90;98.80;;;;;;5053835;28;20082;-87
2021/08/27 12:53:16;;;;;;;5.93;1.50;;;26.50;98.20;;;;;;5051469;28;20120;-86
2021/08/27 12:55:44;;;;;;;5.00;1.33;;;27.10;98.20;;;;;;5052089;28;20377;-88
2021/08/27 12:58:10;;;;;;;3.25;1.27;;;27.90;97.60;;;;;;5051684;28;20037;-88
2021/08/27 13:00:36;;;;;;;4.20;1.48;;;28.10;96.60;;;;;;5051744;28;20471;-88
2021/08/27 13:03:15;;;;;;;6.20;1.67;;;28.60;96.50;;;;;;5051198;28;20025;-89